createdAt,value
2023-03-28T00:00:43.055Z,99947.50
2023-03-28T00:03:35.528Z,99954.38
2023-03-28T00:06:22.269Z,99954.63
2023-03-28T00:09:09.215Z,99968.00
2023-03-28T00:11:55.883Z,99971.59
2023-03-28T00:14:43.461Z,99972.41
2023-03-28T00:17:30.632Z,99975.72
2023-03-28T00:20:17.656Z,99971.31
2023-03-28T00:23:04.123Z,99969.00
2023-03-28T00:25:50.342Z,99979.91
2023-03-28T00:28:38.024Z,99975.88
2023-03-28T00:31:26.385Z,99982.09
2023-03-28T00:34:12.965Z,99985.59
2023-03-28T00:37:02.636Z,99983.53
2023-03-28T00:39:51.875Z,99979.03
2023-03-28T00:42:42.340Z,99976.25
2023-03-28T00:45:29.254Z,99991.06
2023-03-28T00:48:15.825Z,99997.25
2023-03-28T00:51:05.394Z,99983.03
2023-03-28T00:53:57.815Z,99983.59
2023-03-28T00:56:48.150Z,99992.84
2023-03-28T00:59:37.276Z,99995.13
2023-03-28T01:02:24.193Z,99983.44
2023-03-28T01:05:12.585Z,100004.53
2023-03-28T01:08:09.499Z,99996.25
2023-03-28T01:10:56.282Z,100000.66
2023-03-28T01:13:48.330Z,100005.06
2023-03-28T01:16:41.227Z,100001.00
2023-03-28T01:19:51.505Z,100003.69
2023-03-28T01:22:56.129Z,100007.81
2023-03-28T01:26:17.963Z,100000.16
2023-03-28T01:29:32.405Z,100003.44
2023-03-28T01:32:49.936Z,100007.91
2023-03-28T01:36:11.484Z,100019.34
2023-03-28T01:39:52.056Z,100019.28
2023-03-28T01:42:51.379Z,100013.47
2023-03-28T01:45:49.861Z,100020.16
2023-03-28T01:48:36.479Z,100024.34
2023-03-28T01:51:44.373Z,100021.50
2023-03-28T01:54:36.047Z,100024.63
2023-03-28T01:57:35.559Z,100018.63
2023-03-28T02:00:37.574Z,99994.72
2023-03-28T02:03:33.447Z,99995.25
2023-03-28T02:06:28.042Z,100017.91
2023-03-28T02:09:22.226Z,100025.31
2023-03-28T02:12:46.044Z,100021.72
2023-03-28T02:15:51.988Z,100026.84
2023-03-28T02:18:58.562Z,100029.69
2023-03-28T02:22:21.947Z,100025.13
2023-03-28T02:25:09.223Z,100024.44
2023-03-28T02:28:02.967Z,100024.56
2023-03-28T02:30:56.071Z,100021.84
2023-03-28T02:33:48.386Z,100017.38
2023-03-28T02:37:00.243Z,100016.44
2023-03-28T02:40:26.192Z,100015.84
2023-03-28T02:43:21.644Z,100017.88
2023-03-28T02:46:11.292Z,100014.75
2023-03-28T02:49:03.636Z,100023.34
2023-03-28T02:51:59.724Z,100021.09
2023-03-28T02:54:58.181Z,100022.22
2023-03-28T02:58:46.248Z,100021.66
2023-03-28T03:01:33.894Z,100018.09
2023-03-28T03:04:20.482Z,100013.38
2023-03-28T03:07:08.961Z,100016.56
2023-03-28T03:09:57.409Z,100028.81
2023-03-28T03:12:43.965Z,100029.13
2023-03-28T03:15:30.948Z,100006.41
2023-03-28T03:18:18.151Z,100017.25
2023-03-28T03:21:06.276Z,100023.69
2023-03-28T03:23:52.693Z,100012.59
2023-03-28T03:26:39.358Z,100029.56
2023-03-28T03:29:25.972Z,100020.59
2023-03-28T03:32:33.595Z,100025.56
2023-03-28T03:35:23.780Z,100025.25
2023-03-28T03:38:10.476Z,100020.59
2023-03-28T03:40:57.106Z,100022.84
2023-03-28T03:43:45.306Z,100024.06
2023-03-28T03:46:33.736Z,99997.00
2023-03-28T03:49:20.422Z,100003.91
2023-03-28T03:52:06.973Z,100026.81
2023-03-28T03:54:55.965Z,100024.00
2023-03-28T03:57:42.667Z,100024.28
2023-03-28T04:00:29.671Z,99996.41
2023-03-28T04:03:24.165Z,100018.72
2023-03-28T04:06:12.114Z,100022.72
2023-03-28T04:08:58.648Z,100023.19
2023-03-28T04:12:05.926Z,100023.84
2023-03-28T04:15:03.281Z,100031.47
2023-03-28T04:17:56.703Z,100034.38
2023-03-28T04:20:49.582Z,100038.50
2023-03-28T04:23:48.242Z,100033.63
2023-03-28T04:27:00.806Z,100041.84
2023-03-28T04:29:47.265Z,100046.66
2023-03-28T04:33:05.641Z,100054.31
2023-03-28T04:36:02.781Z,100055.47
2023-03-28T04:38:49.593Z,100055.59
2023-03-28T04:41:57.096Z,100059.09
2023-03-28T04:44:47.631Z,100042.09
2023-03-28T04:47:34.938Z,100059.47
2023-03-28T04:50:21.348Z,100069.34
2023-03-28T04:53:08.142Z,100068.16
2023-03-28T04:55:57.479Z,100068.25
2023-03-28T04:58:46.723Z,100067.44
2023-03-28T05:01:34.858Z,100069.97
2023-03-28T05:04:41.038Z,100065.38
2023-03-28T05:07:28.376Z,100068.28
2023-03-28T05:10:14.962Z,100079.53
2023-03-28T05:13:01.983Z,100078.88
2023-03-28T05:15:57.213Z,100080.34
2023-03-28T05:19:01.664Z,100007.22
2023-03-28T05:22:07.837Z,100088.44
2023-03-28T05:24:57.079Z,100089.53
2023-03-28T05:27:45.348Z,100096.94
2023-03-28T05:30:32.022Z,100086.09
2023-03-28T05:33:21.828Z,100108.16
2023-03-28T05:36:09.250Z,100107.56
2023-03-28T05:38:55.944Z,100107.47
2023-03-28T05:41:42.618Z,100112.16
2023-03-28T05:44:29.096Z,100115.78
2023-03-28T05:47:34.721Z,100109.94
2023-03-28T05:50:21.856Z,100117.66
2023-03-28T05:53:08.615Z,100110.06
2023-03-28T05:55:55.239Z,100122.84
2023-03-28T05:58:41.638Z,100105.06
2023-03-28T06:01:29.134Z,100131.22
2023-03-28T06:04:21.770Z,100137.53
2023-03-28T06:07:09.799Z,100140.94
2023-03-28T06:09:57.817Z,100134.66
2023-03-28T06:12:44.506Z,100138.56
2023-03-28T06:15:31.088Z,100147.72
2023-03-28T06:18:17.461Z,100143.75
2023-03-28T06:21:06.622Z,100137.06
2023-03-28T06:23:52.839Z,100149.56
2023-03-28T06:26:44.903Z,100135.31
2023-03-28T06:29:34.460Z,100125.69
2023-03-28T06:32:23.300Z,100145.91
2023-03-28T06:35:10.005Z,100149.78
2023-03-28T06:37:57.071Z,100158.47
2023-03-28T06:40:46.530Z,100159.16
2023-03-28T06:43:32.810Z,100158.13
2023-03-28T06:46:41.398Z,100163.47
2023-03-28T06:49:29.201Z,100143.19
2023-03-28T06:52:34.585Z,100146.69
2023-03-28T06:55:23.900Z,100141.34
2023-03-28T06:58:11.496Z,100163.44
2023-03-28T07:01:06.815Z,100136.34
2023-03-28T07:04:18.950Z,100153.25
2023-03-28T07:07:07.753Z,100130.78
2023-03-28T07:09:54.662Z,100163.38
2023-03-28T07:12:41.492Z,100153.34
2023-03-28T07:15:28.004Z,100157.72
2023-03-28T07:18:14.398Z,100166.09
2023-03-28T07:21:09.574Z,100167.22
2023-03-28T07:23:56.153Z,100161.47
2023-03-28T07:26:47.044Z,100159.66
2023-03-28T07:29:33.813Z,100164.38
2023-03-28T07:32:20.361Z,100170.59
2023-03-28T07:35:08.421Z,100160.16
2023-03-28T07:38:04.108Z,100159.34
2023-03-28T07:40:54.198Z,100159.03
2023-03-28T07:43:41.246Z,100183.09
2023-03-28T07:46:28.218Z,100181.47
2023-03-28T07:49:16.433Z,100194.28
2023-03-28T07:52:04.383Z,100194.56
2023-03-28T07:54:51.243Z,100193.06
2023-03-28T07:57:37.886Z,100197.72
2023-03-28T08:00:37.672Z,100192.06
2023-03-28T08:04:03.447Z,100193.88
2023-03-28T08:07:10.785Z,100185.00
2023-03-28T08:09:59.045Z,100203.06
2023-03-28T08:12:49.629Z,100198.41
2023-03-28T08:15:36.653Z,100184.06
2023-03-28T08:18:25.409Z,100198.09
2023-03-28T08:21:11.819Z,100182.16
2023-03-28T08:23:59.136Z,100195.72
2023-03-28T08:26:52.188Z,100198.75
2023-03-28T08:29:38.782Z,100192.56
2023-03-28T08:32:26.847Z,100203.25
2023-03-28T08:35:14.634Z,100204.44
2023-03-28T08:38:02.001Z,100198.97
2023-03-28T08:41:09.309Z,100180.34
2023-03-28T08:44:19.600Z,100203.22
2023-03-28T08:47:13.436Z,100195.13
2023-03-28T08:50:01.851Z,100203.81
2023-03-28T08:52:48.813Z,100201.78
2023-03-28T08:55:42.881Z,100196.09
2023-03-28T08:58:35.320Z,100193.28
2023-03-28T09:01:23.530Z,100199.41
2023-03-28T09:04:27.097Z,100202.28
2023-03-28T09:07:44.621Z,100202.81
2023-03-28T09:10:42.446Z,100205.94
2023-03-28T09:13:57.538Z,100197.91
2023-03-28T09:16:46.911Z,100202.59
2023-03-28T09:19:48.215Z,100195.16
2023-03-28T09:23:03.404Z,100201.97
2023-03-28T09:26:29.840Z,100206.28
2023-03-28T09:29:25.951Z,100201.97
2023-03-28T09:32:21.081Z,100205.56
2023-03-28T09:35:21.573Z,100199.75
2023-03-28T09:38:38.230Z,100196.75
2023-03-28T09:42:11.228Z,100194.03
2023-03-28T09:45:49.109Z,100193.25
2023-03-28T09:48:54.512Z,100163.44
2023-03-28T09:51:45.586Z,100185.94
2023-03-28T09:54:35.773Z,100192.44
2023-03-28T09:57:23.522Z,100182.47
2023-03-28T10:00:22.634Z,100176.00
2023-03-28T10:03:32.439Z,100186.13
2023-03-28T10:06:27.720Z,100158.09
2023-03-28T10:09:20.188Z,100170.78
2023-03-28T10:12:24.186Z,100171.31
2023-03-28T10:15:45.266Z,100160.66
2023-03-28T10:18:35.029Z,100167.81
2023-03-28T10:21:41.738Z,100152.25
2023-03-28T10:24:32.780Z,100154.81
2023-03-28T10:27:33.213Z,100156.31
2023-03-28T10:30:26.770Z,100144.91
2023-03-28T10:33:17.390Z,100142.81
2023-03-28T10:36:43.598Z,100140.16
2023-03-28T10:39:33.593Z,100134.88
2023-03-28T10:42:46.231Z,100139.50
2023-03-28T10:46:02.373Z,100123.69
2023-03-28T10:49:00.927Z,100136.84
2023-03-28T10:51:47.652Z,100131.38
2023-03-28T10:55:06.861Z,100144.16
2023-03-28T10:58:36.090Z,100150.34
2023-03-28T11:02:00.062Z,100156.94
2023-03-28T11:05:12.317Z,100136.03
2023-03-28T11:08:21.219Z,100134.81
2023-03-28T11:11:44.866Z,100124.59
2023-03-28T11:14:57.970Z,100120.44
2023-03-28T11:18:03.157Z,100119.25
2023-03-28T11:21:07.856Z,100124.16
2023-03-28T11:24:06.712Z,100113.75
2023-03-28T11:27:15.672Z,100110.06
2023-03-28T11:30:23.916Z,100090.34
2023-03-28T11:33:48.662Z,100069.28
2023-03-28T11:36:48.792Z,100069.25
2023-03-28T11:39:48.029Z,100089.47
2023-03-28T11:42:48.766Z,100084.41
2023-03-28T11:45:53.739Z,100073.75
2023-03-28T11:49:16.918Z,100069.38
2023-03-28T11:52:16.809Z,100069.19
2023-03-28T11:55:18.837Z,100052.63
2023-03-28T11:58:20.065Z,100063.31
2023-03-28T12:01:12.166Z,100060.34
2023-03-28T12:03:58.961Z,100056.72
2023-03-28T12:07:03.740Z,100044.00
2023-03-28T12:10:17.441Z,100045.28
2023-03-28T12:13:18.864Z,100043.75
2023-03-28T12:16:24.049Z,100040.44
2023-03-28T12:19:17.319Z,100039.81
2023-03-28T12:22:26.477Z,100026.28
2023-03-28T12:25:21.963Z,100013.59
2023-03-28T12:28:35.736Z,100004.53
2023-03-28T12:31:42.425Z,100010.13
2023-03-28T12:34:44.445Z,99998.47
2023-03-28T12:38:14.297Z,99992.72
2023-03-28T12:41:04.024Z,99993.09
2023-03-28T12:43:53.949Z,99995.72
2023-03-28T12:46:46.450Z,99985.47
2023-03-28T12:49:44.959Z,99965.78
2023-03-28T12:52:36.704Z,99961.59
2023-03-28T12:55:25.640Z,99980.84
2023-03-28T12:58:20.908Z,99985.38
2023-03-28T13:01:25.334Z,99982.84
2023-03-28T13:04:46.362Z,99959.34
2023-03-28T13:08:04.729Z,99958.69
2023-03-28T13:11:19.082Z,99969.44
2023-03-28T13:14:11.239Z,99967.00
2023-03-28T13:17:00.388Z,99957.25
2023-03-28T13:19:51.746Z,99956.53
2023-03-28T13:22:49.141Z,99951.16
2023-03-28T13:25:36.681Z,99937.66
2023-03-28T13:28:32.592Z,99931.53
2023-03-28T13:31:24.729Z,99948.47
2023-03-28T13:34:23.341Z,99943.81
2023-03-28T13:37:24.824Z,99925.59
2023-03-28T13:40:50.669Z,99930.94
2023-03-28T13:43:37.701Z,99917.69
2023-03-28T13:46:30.287Z,99912.16
2023-03-28T13:49:32.074Z,99908.97
2023-03-28T13:52:22.375Z,99909.38
2023-03-28T13:55:23.082Z,99898.94
2023-03-28T13:58:13.233Z,99892.06
2023-03-28T14:01:16.502Z,99867.59
2023-03-28T14:04:16.283Z,99885.63
2023-03-28T14:07:02.652Z,99881.94
2023-03-28T14:09:50.876Z,99879.28
2023-03-28T14:12:38.146Z,99868.22
2023-03-28T14:15:29.710Z,99859.91
2023-03-28T14:18:22.745Z,99844.97
2023-03-28T14:21:10.154Z,99863.41
2023-03-28T14:24:07.783Z,99857.47
2023-03-28T14:27:12.611Z,99855.81
2023-03-28T14:30:00.407Z,99824.97
2023-03-28T14:33:14.815Z,99840.75
2023-03-28T14:36:04.225Z,99836.59
2023-03-28T14:38:51.057Z,99823.69
2023-03-28T14:41:38.245Z,99830.66
2023-03-28T14:44:25.050Z,99825.34
2023-03-28T14:47:17.545Z,99814.09
2023-03-28T14:50:05.267Z,99821.94
2023-03-28T14:52:52.165Z,99815.91
2023-03-28T14:55:39.248Z,99815.88
2023-03-28T14:58:26.720Z,99795.91
2023-03-28T15:01:24.745Z,99806.31
2023-03-28T15:04:13.465Z,99783.78
2023-03-28T15:07:00.050Z,99801.81
2023-03-28T15:10:01.378Z,99801.78
2023-03-28T15:13:08.863Z,99790.28
2023-03-28T15:15:57.678Z,99784.94
2023-03-28T15:18:49.164Z,99762.41
2023-03-28T15:21:38.757Z,99774.22
2023-03-28T15:24:27.787Z,99758.56
2023-03-28T15:27:33.250Z,99764.66
2023-03-28T15:30:20.790Z,99751.78
2023-03-28T15:33:07.350Z,99750.00
2023-03-28T15:36:12.093Z,99744.91
2023-03-28T15:39:11.097Z,99743.94
2023-03-28T15:42:16.575Z,99730.75
2023-03-28T15:45:22.325Z,99734.22
2023-03-28T15:48:19.735Z,99729.72
2023-03-28T15:51:12.996Z,99725.31
2023-03-28T15:54:00.374Z,99710.66
2023-03-28T15:56:48.672Z,99705.34
2023-03-28T16:00:01.424Z,99712.16
2023-03-28T16:02:48.571Z,99712.06
2023-03-28T16:05:37.556Z,99713.72
2023-03-28T16:08:32.619Z,99700.78
2023-03-28T16:11:26.700Z,99711.25
2023-03-28T16:14:35.222Z,99692.16
2023-03-28T16:17:48.857Z,99713.78
2023-03-28T16:20:43.928Z,99711.22
2023-03-28T16:23:30.321Z,99709.31
2023-03-28T16:26:17.077Z,99698.84
2023-03-28T16:29:05.134Z,99687.41
2023-03-28T16:31:51.527Z,99699.44
2023-03-28T16:34:38.738Z,99697.50
2023-03-28T16:37:24.912Z,99693.03
2023-03-28T16:40:12.074Z,99696.53
2023-03-28T16:42:58.843Z,99678.25
2023-03-28T16:45:47.082Z,99686.09
2023-03-28T16:48:36.544Z,99665.19
2023-03-28T16:51:23.118Z,99662.38
2023-03-28T16:54:10.166Z,99678.66
2023-03-28T16:56:57.113Z,99670.91
2023-03-28T16:59:43.705Z,99663.72
2023-03-28T17:02:30.843Z,99663.59
2023-03-28T17:05:17.795Z,99659.91
2023-03-28T17:08:04.590Z,99644.94
2023-03-28T17:10:52.128Z,99641.63
2023-03-28T17:13:40.288Z,99646.44
2023-03-28T17:16:27.343Z,99628.13
2023-03-28T17:19:14.102Z,99608.81
2023-03-28T17:22:01.263Z,99632.91
2023-03-28T17:24:47.549Z,99607.47
2023-03-28T17:27:33.784Z,99623.78
2023-03-28T17:30:20.580Z,99624.50
2023-03-28T17:33:07.614Z,99612.28
2023-03-28T17:35:54.227Z,99613.81
2023-03-28T17:38:41.023Z,99605.81
2023-03-28T17:41:28.069Z,99610.72
2023-03-28T17:44:14.661Z,99595.88
2023-03-28T17:47:01.367Z,99599.38
2023-03-28T17:49:47.973Z,99597.75
2023-03-28T17:52:34.939Z,99594.31
2023-03-28T17:55:21.578Z,99586.47
2023-03-28T17:58:08.223Z,99589.34
2023-03-28T18:00:54.766Z,99592.91
2023-03-28T18:03:41.593Z,99586.13
2023-03-28T18:06:41.090Z,99591.22
2023-03-28T18:09:27.656Z,99574.84
2023-03-28T18:12:14.436Z,99578.41
2023-03-28T18:15:01.480Z,99574.91
2023-03-28T18:17:48.091Z,99559.91
2023-03-28T18:20:35.389Z,99563.34
2023-03-28T18:23:22.094Z,99566.63
2023-03-28T18:26:09.081Z,99570.97
2023-03-28T18:28:55.830Z,99573.44
2023-03-28T18:31:42.628Z,99576.66
2023-03-28T18:34:29.079Z,99552.44
2023-03-28T18:37:16.602Z,99568.66
2023-03-28T18:40:07.141Z,99553.47
2023-03-28T18:42:53.797Z,99567.09
2023-03-28T18:45:40.288Z,99539.97
2023-03-28T18:48:28.390Z,99561.47
2023-03-28T18:51:14.544Z,99564.97
2023-03-28T18:54:01.538Z,99566.69
2023-03-28T18:56:48.402Z,99569.38
2023-03-28T18:59:34.745Z,99559.25
2023-03-28T19:02:22.273Z,99554.00
2023-03-28T19:05:09.430Z,99573.97
2023-03-28T19:07:56.927Z,99558.50
2023-03-28T19:10:46.536Z,99576.69
2023-03-28T19:13:33.355Z,99575.84
2023-03-28T19:16:20.287Z,99581.31
2023-03-28T19:19:06.728Z,99583.91
2023-03-28T19:21:53.405Z,99584.00
2023-03-28T19:24:39.914Z,99592.44
2023-03-28T19:27:26.087Z,99591.66
2023-03-28T19:30:12.755Z,99589.78
2023-03-28T19:32:59.112Z,99591.50
2023-03-28T19:35:45.632Z,99593.13
2023-03-28T19:38:34.883Z,99595.72
2023-03-28T19:41:23.147Z,99606.84
2023-03-28T19:44:09.860Z,99591.34
2023-03-28T19:46:56.054Z,99580.13
2023-03-28T19:49:42.869Z,99575.75
2023-03-28T19:52:29.368Z,99548.88
2023-03-28T19:55:15.554Z,99561.94
2023-03-28T19:58:04.973Z,99563.53
2023-03-28T20:00:51.398Z,99549.56
2023-03-28T20:03:37.721Z,99573.16
2023-03-28T20:06:24.996Z,99572.31
2023-03-28T20:09:11.505Z,99558.69
2023-03-28T20:11:58.121Z,99556.97
2023-03-28T20:14:45.730Z,99539.69
2023-03-28T20:17:32.722Z,99543.28
2023-03-28T20:20:19.455Z,99557.31
2023-03-28T20:23:06.786Z,99555.59
2023-03-28T20:25:53.818Z,99541.75
2023-03-28T20:28:41.577Z,99547.72
2023-03-28T20:31:29.070Z,99563.66
2023-03-28T20:34:15.552Z,99561.06
2023-03-28T20:37:02.066Z,99581.13
2023-03-28T20:39:50.535Z,99582.53
2023-03-28T20:42:40.674Z,99575.22
2023-03-28T20:45:28.430Z,99580.25
2023-03-28T20:48:16.641Z,99594.47
2023-03-28T20:51:14.371Z,99586.31
2023-03-28T20:54:01.592Z,99514.94
2023-03-28T20:56:49.342Z,99457.31
2023-03-28T20:59:35.392Z,99483.97
2023-03-28T21:02:23.139Z,99489.97
2023-03-28T21:05:09.929Z,99493.03
2023-03-28T21:07:58.184Z,99494.41
2023-03-28T21:10:51.929Z,99530.88
2023-03-28T21:13:38.237Z,99542.56
2023-03-28T21:16:25.559Z,99545.09
2023-03-28T21:19:12.018Z,99534.44
2023-03-28T21:21:58.236Z,99511.72
2023-03-28T21:24:44.520Z,99512.66
2023-03-28T21:27:32.050Z,99532.03
2023-03-28T21:30:19.428Z,99514.94
2023-03-28T21:33:06.917Z,99499.63
2023-03-28T21:35:54.375Z,99505.41
2023-03-28T21:38:40.889Z,99525.97
2023-03-28T21:41:27.404Z,99540.34
2023-03-28T21:44:13.797Z,99499.63
2023-03-28T21:47:00.702Z,99506.44
2023-03-28T21:49:49.326Z,99472.91
2023-03-28T21:52:36.308Z,99449.16
2023-03-28T21:55:22.862Z,99462.38
2023-03-28T21:58:09.090Z,99447.56
2023-03-28T22:00:55.963Z,99503.00
2023-03-28T22:03:42.829Z,99522.28
2023-03-28T22:06:29.327Z,99519.38
2023-03-28T22:09:15.575Z,99536.50
2023-03-28T22:12:05.536Z,99532.84
2023-03-28T22:14:52.153Z,99515.88
2023-03-28T22:17:40.633Z,99513.22
2023-03-28T22:20:28.405Z,99528.84
2023-03-28T22:23:15.146Z,99532.00
2023-03-28T22:26:03.445Z,99553.41
2023-03-28T22:28:49.760Z,99551.28
2023-03-28T22:31:36.099Z,99567.03
2023-03-28T22:34:22.585Z,99558.97
2023-03-28T22:37:09.112Z,99561.56
2023-03-28T22:39:55.958Z,99567.03
2023-03-28T22:42:42.322Z,99565.66
2023-03-28T22:45:28.945Z,99568.25
2023-03-28T22:48:15.573Z,99555.94
2023-03-28T22:51:02.523Z,99567.28
2023-03-28T22:53:49.357Z,99563.91
2023-03-28T22:56:35.645Z,99564.91
2023-03-28T22:59:22.392Z,99550.81
2023-03-28T23:02:08.789Z,99576.91
2023-03-28T23:04:55.953Z,99563.09
2023-03-28T23:07:42.939Z,99560.38
2023-03-28T23:10:32.877Z,99558.66
2023-03-28T23:13:19.496Z,99555.09
2023-03-28T23:16:07.212Z,99546.38
2023-03-28T23:18:53.651Z,99540.97
2023-03-28T23:21:41.513Z,99509.66
2023-03-28T23:24:28.216Z,99507.06
2023-03-28T23:27:14.615Z,99499.44
2023-03-28T23:30:00.908Z,99485.47
2023-03-28T23:32:47.340Z,99473.19
2023-03-28T23:35:33.664Z,99465.03
2023-03-28T23:38:19.942Z,99476.06
2023-03-28T23:41:07.682Z,99469.66
2023-03-28T23:43:54.053Z,99455.81
2023-03-28T23:46:40.635Z,99460.16
2023-03-28T23:49:26.952Z,99464.22
2023-03-28T23:52:13.293Z,99475.72
2023-03-28T23:54:59.696Z,99457.50
2023-03-28T23:57:46.680Z,99449.53
